Montverde, Florida
Current Conditions -  °F | °C
As of 7:02 AM on Sunday 23 Nov 2014 (Local Time) from KLEE Reporting Station
Overcast Overcast  
Wind Chill: 70°   Ceiling: 900
Heat Index: 70°   Visibility: 10mi
Dew Point: 69°   Wind: 8mph
Humidity: 97%   Direction: 150°SSE
Pressure: 30.01"   Gusts: NA
Location:  28.6°N, 81.67°W
Report Text: KLEE 231202Z 15007KT 10SM OVC009 21/21 A3001 RMK AO2 T02110206
Loading
Personal Weather Stations






























Interactive Weather Map New forecast layout! Learn more

10-Day Weather Forecast

Advertisements
Track Severe Weather on mobile